Josco Star — VRBS3 — position and weather

sailwx.info

Track history (hours):
 
Tides and Currents Weather Stations Pressure Air Temp Water Temp Dewpoint Dewpoint Depression Visibility Wind Speed Wind Dir Waves Ship Positions

Josco Star

Last reported at 2018-Jul-21 13:06 UTC. Time now 2018-Jul-22 00:55 UTC.
Position N 35°36' E 139°47'.

Length 143 m; draft 6.6 m.

Type: Cargo ship. MMSI: 477105800.

Date/timePositionNaut miles runAvg speedWind from/ knotsBaromVisibWave heightAir tempDewpointWater temp
2018-Jul-21 13:06N 35°36' E 139°47'0 0.2
2018-Jul-21 13:01N 35°36' E 139°47'3 5.1
2018-Jul-21 12:30N 35°34' E 139°49'611.3
2018-Jul-21 12:00N 35°29' E 139°52'714.1
2018-Jul-21 11:31N 35°24' E 139°46'611.6
2018-Jul-21 11:01N 35°18' E 139°45'611.9
2018-Jul-21 10:30N 35°12' E 139°47'714.6
2018-Jul-21 10:00N 35°05' E 139°45'815.2
2018-Jul-21 09:30N 35°00' E 139°37'917.3
2018-Jul-21 09:00N 34°55' E 139°29'23013.6
2018-Jul-20 16:03N 33°46' E 135°03'113.6
2018-Jul-20 16:00N 33°47' E 135°03'613.1
2018-Jul-20 15:30N 33°52' E 134°58'713.9
2018-Jul-20 15:00N 33°59' E 134°57'713.5
2018-Jul-20 14:30N 34°06' E 134°58'714.0
2018-Jul-20 14:00N 34°13' E 134°58'714.6
2018-Jul-20 13:30N 34°20' E 134°59'713.7
2018-Jul-20 13:00N 34°25' E 135°05'714.0
2018-Jul-20 12:31N 34°30' E 135°11'713.7
2018-Jul-20 12:00N 34°35' E 135°16'4 8.2
2018-Jul-20 11:30N 34°40' E 135°15'0 0.3
2018-Jul-20 10:55N 34°39' E 135°15'0 0.0
2018-Jul-20 10:25N 34°39' E 135°15'0 0.0
2018-Jul-20 09:55N 34°39' E 135°15'0 0.0
2018-Jul-20 09:25N 34°39' E 135°15'0 0.0
2018-Jul-20 08:59N 34°39' E 135°15'1 2.5
2018-Jul-20 08:30N 34°39' E 135°16'3 5.4
2018-Jul-20 08:00N 34°38' E 135°19'3 5.9
2018-Jul-20 07:30N 34°39' E 135°22'2 3.1
2018-Jul-20 07:00N 34°39' E 135°24'0 0.1
2018-Jul-20 06:25N 34°39' E 135°24'0 0.0
2018-Jul-20 05:58N 34°39' E 135°24'0 0.0
2018-Jul-20 05:28N 34°39' E 135°24'0 0.0
2018-Jul-20 04:55N 34°39' E 135°24'0 0.0
2018-Jul-20 04:19N 34°39' E 135°24'0 0.0
2018-Jul-20 03:58N 34°39' E 135°24'0 0.0
2018-Jul-20 03:28N 34°39' E 135°24'0 0.0
2018-Jul-20 02:55N 34°39' E 135°24'0 0.0
2018-Jul-20 02:28N 34°39' E 135°24'0 0.0
2018-Jul-20 01:58N 34°39' E 135°24'0 0.0
2018-Jul-20 01:28N 34°39' E 135°24'0 0.0
2018-Jul-20 00:58N 34°39' E 135°24'0 0.0
2018-Jul-20 00:28N 34°39' E 135°24'0 0.0
2018-Jul-19 23:58N 34°39' E 135°24'0 0.0
2018-Jul-19 23:25N 34°39' E 135°24'0 0.3
2018-Jul-19 23:00N 34°39' E 135°24'4 8.8
2018-Jul-19 22:30N 34°36' E 135°20'714.2
2018-Jul-19 22:00N 34°31' E 135°14'713.9
2018-Jul-19 21:30N 34°26' E 135°08'713.6
2018-Jul-19 21:00N 34°21' E 135°02'612.6
2018-Jul-19 20:30N 34°15' E 134°59'714.6
2018-Jul-19 20:00N 34°08' E 134°59'714.8
2018-Jul-19 19:30N 34°00' E 134°59'714.1
2018-Jul-19 19:00N 33°53' E 134°59'714.0
2018-Jul-19 18:30N 33°46' E 134°57'714.5
2018-Jul-19 18:00N 33°40' E 134°53'  
2018-Jul-17 02:15N 30°58' E 122°31'313.8
2018-Jul-17 02:00N 31°02' E 122°31'6 9.5
2018-Jul-17 01:21N 31°06' E 122°25'412.0
2018-Jul-17 01:00N 31°06' E 122°20'714.2
2018-Jul-17 00:29N 31°09' E 122°13'1514.8
2018-Jul-16 23:29N 31°15' E 121°57'915.0
2018-Jul-16 22:54N 31°18' E 121°47'  
2018-Jul-14 18:33N 31°60' E 120°36'1 7.6
2018-Jul-14 18:26N 32°00' E 120°35'611.8
2018-Jul-14 17:58N 32°02' E 120°28'3 0.1
2018-Jul-12 20:46N 32°01' E 120°25'313.3
2018-Jul-12 20:30N 32°02' E 120°29'8011.5
2018-Jul-12 13:34N 31°16' E 121°45'213.6
2018-Jul-12 13:25N 31°14' E 121°47'713.9
2018-Jul-12 12:53N 31°09' E 121°53'514.1
2018-Jul-12 12:30N 31°06' E 121°58'5 9.8
2018-Jul-12 12:00N 31°05' E 122°04'4 7.1
2018-Jul-12 11:30N 31°04' E 122°08'4 8.9
2018-Jul-12 11:00N 31°03' E 122°13'713.8
2018-Jul-12 10:31N 31°02' E 122°21'813.7
2018-Jul-12 09:55N 31°01' E 122°30'  
Track history (hours):
 
Tides and Currents Weather Stations Pressure Air Temp Water Temp Dewpoint Dewpoint Depression Visibility Wind Speed Wind Dir Waves Ship Positions

Josco Star

Last reported at 2018-Jul-21 13:06 UTC. Time now 2018-Jul-22 00:55 UTC.
Position N 35°36' E 139°47'.

Length 143 m; draft 6.6 m.

Type: Cargo ship. MMSI: 477105800.

Date/timePositionNaut miles runAvg speedWind from/ knotsBaromVisibWave heightAir tempDewpointWater temp
2018-Jul-21 13:06N 35°36' E 139°47'0 0.2
2018-Jul-21 13:01N 35°36' E 139°47'3 5.1
2018-Jul-21 12:30N 35°34' E 139°49'611.3
2018-Jul-21 12:00N 35°29' E 139°52'714.1
2018-Jul-21 11:31N 35°24' E 139°46'611.6
2018-Jul-21 11:01N 35°18' E 139°45'611.9
2018-Jul-21 10:30N 35°12' E 139°47'714.6
2018-Jul-21 10:00N 35°05' E 139°45'815.2
2018-Jul-21 09:30N 35°00' E 139°37'917.3
2018-Jul-21 09:00N 34°55' E 139°29'23013.6
2018-Jul-20 16:03N 33°46' E 135°03'113.6
2018-Jul-20 16:00N 33°47' E 135°03'613.1
2018-Jul-20 15:30N 33°52' E 134°58'713.9
2018-Jul-20 15:00N 33°59' E 134°57'713.5
2018-Jul-20 14:30N 34°06' E 134°58'714.0
2018-Jul-20 14:00N 34°13' E 134°58'714.6
2018-Jul-20 13:30N 34°20' E 134°59'713.7
2018-Jul-20 13:00N 34°25' E 135°05'714.0
2018-Jul-20 12:31N 34°30' E 135°11'713.7
2018-Jul-20 12:00N 34°35' E 135°16'4 8.2
2018-Jul-20 11:30N 34°40' E 135°15'0 0.3
2018-Jul-20 10:55N 34°39' E 135°15'0 0.0
2018-Jul-20 10:25N 34°39' E 135°15'0 0.0
2018-Jul-20 09:55N 34°39' E 135°15'0 0.0
2018-Jul-20 09:25N 34°39' E 135°15'0 0.0
2018-Jul-20 08:59N 34°39' E 135°15'1 2.5
2018-Jul-20 08:30N 34°39' E 135°16'3 5.4
2018-Jul-20 08:00N 34°38' E 135°19'3 5.9
2018-Jul-20 07:30N 34°39' E 135°22'2 3.1
2018-Jul-20 07:00N 34°39' E 135°24'0 0.1
2018-Jul-20 06:25N 34°39' E 135°24'0 0.0
2018-Jul-20 05:58N 34°39' E 135°24'0 0.0
2018-Jul-20 05:28N 34°39' E 135°24'0 0.0
2018-Jul-20 04:55N 34°39' E 135°24'0 0.0
2018-Jul-20 04:19N 34°39' E 135°24'0 0.0
2018-Jul-20 03:58N 34°39' E 135°24'0 0.0
2018-Jul-20 03:28N 34°39' E 135°24'0 0.0
2018-Jul-20 02:55N 34°39' E 135°24'0 0.0
2018-Jul-20 02:28N 34°39' E 135°24'0 0.0
2018-Jul-20 01:58N 34°39' E 135°24'0 0.0
2018-Jul-20 01:28N 34°39' E 135°24'0 0.0
2018-Jul-20 00:58N 34°39' E 135°24'0 0.0
2018-Jul-20 00:28N 34°39' E 135°24'0 0.0
2018-Jul-19 23:58N 34°39' E 135°24'0 0.0
2018-Jul-19 23:25N 34°39' E 135°24'0 0.3
2018-Jul-19 23:00N 34°39' E 135°24'4 8.8
2018-Jul-19 22:30N 34°36' E 135°20'714.2
2018-Jul-19 22:00N 34°31' E 135°14'713.9
2018-Jul-19 21:30N 34°26' E 135°08'713.6
2018-Jul-19 21:00N 34°21' E 135°02'612.6
2018-Jul-19 20:30N 34°15' E 134°59'714.6
2018-Jul-19 20:00N 34°08' E 134°59'714.8
2018-Jul-19 19:30N 34°00' E 134°59'714.1
2018-Jul-19 19:00N 33°53' E 134°59'714.0
2018-Jul-19 18:30N 33°46' E 134°57'714.5
2018-Jul-19 18:00N 33°40' E 134°53'  
2018-Jul-17 02:15N 30°58' E 122°31'313.8
2018-Jul-17 02:00N 31°02' E 122°31'6 9.5
2018-Jul-17 01:21N 31°06' E 122°25'412.0
2018-Jul-17 01:00N 31°06' E 122°20'714.2
2018-Jul-17 00:29N 31°09' E 122°13'1514.8
2018-Jul-16 23:29N 31°15' E 121°57'915.0
2018-Jul-16 22:54N 31°18' E 121°47'  
2018-Jul-14 18:33N 31°60' E 120°36'1 7.6
2018-Jul-14 18:26N 32°00' E 120°35'611.8
2018-Jul-14 17:58N 32°02' E 120°28'3 0.1
2018-Jul-12 20:46N 32°01' E 120°25'313.3
2018-Jul-12 20:30N 32°02' E 120°29'8011.5
2018-Jul-12 13:34N 31°16' E 121°45'213.6
2018-Jul-12 13:25N 31°14' E 121°47'713.9
2018-Jul-12 12:53N 31°09' E 121°53'514.1
2018-Jul-12 12:30N 31°06' E 121°58'5 9.8
2018-Jul-12 12:00N 31°05' E 122°04'4 7.1
2018-Jul-12 11:30N 31°04' E 122°08'4 8.9
2018-Jul-12 11:00N 31°03' E 122°13'713.8
2018-Jul-12 10:31N 31°02' E 122°21'813.7
2018-Jul-12 09:55N 31°01' E 122°30'  

Dump ship's entire track history